createdAt,value
2019-02-16T00:02:07.526Z,91.19
2019-02-16T00:07:07.205Z,91.29
2019-02-16T00:12:07.159Z,90.55
2019-02-16T00:17:07.473Z,90.9
2019-02-16T00:22:07.224Z,92.49
2019-02-16T00:27:07.990Z,92.6
2019-02-16T00:31:07.216Z,93.27
2019-02-16T00:36:06.999Z,95.85
2019-02-16T00:41:07.009Z,94.21
2019-02-16T00:46:07.570Z,92.55
2019-02-16T00:51:14.568Z,91.68
2019-02-16T00:56:07.236Z,91.1
2019-02-16T01:01:07.532Z,90.94
2019-02-16T01:06:07.184Z,90.55
2019-02-16T01:10:07.189Z,90.55
2019-02-16T01:15:08.362Z,90.47
2019-02-16T01:20:07.198Z,90.49
2019-02-16T01:25:06.924Z,90.7
2019-02-16T01:30:08.776Z,90.34
2019-02-16T01:35:07.129Z,90.33
2019-02-16T01:40:07.154Z,90.61
2019-02-16T01:44:06.174Z,90.97
2019-02-16T01:49:06.917Z,90.92
2019-02-16T01:54:06.611Z,90.74
2019-02-16T01:59:06.252Z,90.43
2019-02-16T02:04:09.268Z,90.25
2019-02-16T02:09:08.850Z,90.13
2019-02-16T02:14:07.719Z,89.78
2019-02-16T02:19:07.090Z,89.75
2019-02-16T02:23:06.336Z,89.94
2019-02-16T02:28:06.075Z,89.92
2019-02-16T02:33:06.848Z,89.66
2019-02-16T02:38:06.524Z,89.46
2019-02-16T02:43:06.856Z,89.58
2019-02-16T02:48:06.818Z,88.52
2019-02-16T02:53:06.603Z,89.92
2019-02-16T02:57:07.431Z,91.06
2019-02-16T03:02:07.109Z,91.02
2019-02-16T03:07:06.988Z,90.82
2019-02-16T03:12:06.203Z,90.16
2019-02-16T03:17:06.279Z,89.61
2019-02-16T03:22:07.047Z,89.84
2019-02-16T03:27:06.939Z,89.26
2019-02-16T03:32:07.170Z,88.84
2019-02-16T03:36:06.440Z,88.05
2019-02-16T03:41:07.661Z,88.12
2019-02-16T03:46:06.341Z,88.09
2019-02-16T03:51:07.307Z,88.36
2019-02-16T03:56:06.071Z,87.81
2019-02-16T04:01:07.702Z,87.29
2019-02-16T04:06:07.685Z,87.34
2019-02-16T04:10:07.420Z,88.34
2019-02-16T04:15:07.214Z,88.33
2019-02-16T04:20:07.070Z,88.51
2019-02-16T04:25:06.906Z,90.44
2019-02-16T04:30:09.276Z,92.35
2019-02-16T04:35:06.193Z,94
2019-02-16T04:40:07.248Z,93.15
2019-02-16T04:44:06.659Z,92.98
2019-02-16T04:49:07.112Z,92.81
2019-02-16T04:54:06.970Z,93.58
2019-02-16T04:59:06.839Z,93.77
2019-02-16T05:04:06.527Z,94.2
2019-02-16T05:09:07.790Z,93.45
2019-02-16T05:14:06.606Z,92.58
2019-02-16T05:19:07.386Z,91.64
2019-02-16T05:23:06.458Z,90.87
2019-02-16T05:28:07.038Z,89.94
2019-02-16T05:33:07.506Z,88.41
2019-02-16T05:38:07.272Z,89.68
2019-02-16T05:43:06.727Z,87.3
2019-02-16T05:48:07.208Z,89.07
2019-02-16T05:53:07.008Z,92.01
2019-02-16T05:58:06.709Z,89.49
2019-02-16T06:02:07.121Z,87.95
2019-02-16T06:07:06.763Z,87.12
2019-02-16T06:12:07.008Z,86.85
2019-02-16T06:17:07.543Z,86.24
2019-02-16T06:22:07.438Z,85.83
2019-02-16T06:27:07.147Z,85.67
2019-02-16T06:32:06.704Z,85.85
2019-02-16T06:36:06.870Z,85.18
2019-02-16T06:41:07.275Z,84.49
2019-02-16T06:46:06.590Z,84.95
2019-02-16T06:51:06.392Z,85.56
2019-02-16T06:56:06.126Z,85.69
2019-02-16T07:01:06.935Z,85.37
2019-02-16T07:06:07.706Z,85.06
2019-02-16T07:11:06.892Z,85
2019-02-16T07:15:07.455Z,82.02
2019-02-16T07:20:07.821Z,78.04
2019-02-16T07:25:06.664Z,75.31
2019-02-16T07:30:07.548Z,72.52
2019-02-16T07:35:06.216Z,73.12
2019-02-16T07:40:06.311Z,72.85
2019-02-16T07:45:08.081Z,72.07
2019-02-16T07:49:06.675Z,70.79
2019-02-16T07:54:06.995Z,69.66
2019-02-16T07:59:06.850Z,68.74
2019-02-16T08:04:07.428Z,70.64
2019-02-16T08:09:07.600Z,71.92
2019-02-16T08:14:07.433Z,70.5
2019-02-16T08:19:07.078Z,69.33
2019-02-16T08:24:06.917Z,68.21
2019-02-16T08:28:06.176Z,68.34
2019-02-16T08:33:06.339Z,67.27
2019-02-16T08:38:06.063Z,66.3
2019-02-16T08:43:06.328Z,65.11
2019-02-16T08:48:06.283Z,64.51
2019-02-16T08:53:06.123Z,62.77
2019-02-16T08:58:06.846Z,62.66
2019-02-16T09:02:06.955Z,62.25
2019-02-16T09:07:06.966Z,61.61
2019-02-16T09:08:06.754Z,61.61
2019-02-16T09:12:07.400Z,57.72
2019-02-16T09:17:06.861Z,56
2019-02-16T09:22:07.605Z,54.44
2019-02-16T09:27:07.321Z,53.32
2019-02-16T09:32:06.733Z,51.8
2019-02-16T09:37:07.515Z,51.09
2019-02-16T09:41:06.815Z,51.49
2019-02-16T09:46:07.774Z,51.61
2019-02-16T09:51:07.630Z,50.2
2019-02-16T09:56:07.444Z,49.9
2019-02-16T10:01:06.573Z,48.81
2019-02-16T10:06:06.388Z,47.34
2019-02-16T10:11:06.599Z,45.93
2019-02-16T10:16:06.046Z,45.56
2019-02-16T10:20:07.222Z,45.28
2019-02-16T10:25:07.236Z,44.67
2019-02-16T10:30:08.219Z,45.57
2019-02-16T10:35:06.824Z,42.72
2019-02-16T10:40:07.019Z,41.28
2019-02-16T10:45:07.860Z,43.29
2019-02-16T10:50:07.501Z,42.98
2019-02-16T10:55:07.226Z,39.53
2019-02-16T10:59:07.125Z,40.29
2019-02-16T11:04:07.248Z,39.78
2019-02-16T11:09:06.483Z,39.64
2019-02-16T11:14:06.251Z,38.26
2019-02-16T11:19:06.823Z,38.56
2019-02-16T11:24:06.518Z,38.31
2019-02-16T11:29:06.982Z,34.44
2019-02-16T11:34:07.506Z,36.64
2019-02-16T11:38:07.344Z,35.23
2019-02-16T11:43:07.435Z,35.74
2019-02-16T11:48:07.276Z,33.04
2019-02-16T11:53:06.970Z,33.59
2019-02-16T11:58:06.709Z,32.91
2019-02-16T12:03:06.051Z,32.81
2019-02-16T12:08:06.835Z,34.27
2019-02-16T12:13:06.026Z,31.77
2019-02-16T12:17:07.546Z,32.4
2019-02-16T12:22:07.283Z,32.05
2019-02-16T12:27:07.040Z,31.53
2019-02-16T12:32:07.586Z,31.38
2019-02-16T12:37:07.286Z,31.03
2019-02-16T12:42:07.476Z,32.23
2019-02-16T12:47:06.792Z,31.73
2019-02-16T12:52:07.511Z,30.97
2019-02-16T12:56:07.346Z,31.99
2019-02-16T13:01:07.306Z,31.92
2019-02-16T13:06:07.093Z,32.1
2019-02-16T13:11:07.535Z,31.98
2019-02-16T13:16:07.296Z,31.04
2019-02-16T13:21:07.137Z,32.04
2019-02-16T13:26:06.854Z,31.78
2019-02-16T13:30:07.490Z,31
2019-02-16T13:35:06.785Z,30.74
2019-02-16T13:40:07.231Z,30.22
2019-02-16T13:45:08.206Z,30.71
2019-02-16T13:50:06.940Z,31.38
2019-02-16T13:55:06.657Z,30.89
2019-02-16T14:05:07.611Z,31.71
2019-02-16T14:09:07.726Z,30.61
2019-02-16T14:14:07.451Z,31.79
2019-02-16T14:19:07.137Z,32.01
2019-02-16T14:24:06.993Z,32.23
2019-02-16T14:29:06.811Z,30.06
2019-02-16T14:34:07.495Z,31.14
2019-02-16T14:39:06.963Z,31.06
2019-02-16T14:43:07.446Z,31.77
2019-02-16T14:48:07.427Z,33.89
2019-02-16T14:53:07.131Z,37.89
2019-02-16T14:58:06.876Z,37.64
2019-02-16T15:03:06.528Z,38.26
2019-02-16T15:08:06.169Z,38.38
2019-02-16T15:13:06.413Z,38.24
2019-02-16T15:18:06.125Z,40.3
2019-02-16T15:22:07.572Z,41.34
2019-02-16T15:27:07.274Z,39.87
2019-02-16T15:32:06.709Z,37.67
2019-02-16T15:37:07.463Z,37.23
2019-02-16T15:42:06.798Z,37.74
2019-02-16T15:47:06.875Z,40.22
2019-02-16T15:51:06.764Z,43.48
2019-02-16T15:56:11.509Z,44.37
2019-02-16T16:01:07.400Z,45.28
2019-02-16T16:06:07.177Z,45.24
2019-02-16T16:11:07.265Z,46.1
2019-02-16T16:16:07.681Z,46.75
2019-02-16T16:21:07.527Z,47.68
2019-02-16T16:25:06.564Z,49.19
2019-02-16T16:30:08.282Z,50.55
2019-02-16T16:35:06.606Z,51.4
2019-02-16T16:40:07.325Z,52.07
2019-02-16T16:45:08.730Z,52.79
2019-02-16T16:50:06.800Z,53.59
2019-02-16T16:54:07.578Z,53.29
2019-02-16T16:59:07.661Z,52.9
2019-02-16T17:04:07.477Z,54.28
2019-02-16T17:09:08.469Z,56.37
2019-02-16T17:14:07.204Z,59.15
2019-02-16T17:19:06.691Z,62.23
2019-02-16T17:24:07.561Z,65.81
2019-02-16T17:28:06.750Z,63.5
2019-02-16T17:33:06.691Z,62.45
2019-02-16T17:38:06.323Z,63.37
2019-02-16T17:43:06.671Z,65.73
2019-02-16T17:48:06.151Z,67.87
2019-02-16T17:53:07.004Z,69.13
2019-02-16T17:58:07.561Z,71.14
2019-02-16T18:02:07.032Z,73.29
2019-02-16T18:07:06.864Z,74.74
2019-02-16T18:12:07.057Z,74.54
2019-02-16T18:17:06.902Z,75.52
2019-02-16T18:22:08.052Z,76.68
2019-02-16T18:27:06.781Z,77.4
2019-02-16T18:32:07.052Z,76.42
2019-02-16T18:36:06.283Z,77.02
2019-02-16T18:41:06.592Z,78.1
2019-02-16T18:46:06.368Z,77.81
2019-02-16T18:51:06.083Z,78.67
2019-02-16T18:56:06.153Z,80.28
2019-02-16T19:01:07.267Z,79.85
2019-02-16T19:06:07.132Z,80.25
2019-02-16T19:10:06.644Z,80.13
2019-02-16T19:15:07.940Z,81.7
2019-02-16T19:20:07.008Z,81.37
2019-02-16T19:25:06.804Z,82.15
2019-02-16T19:30:08.002Z,82.55
2019-02-16T19:35:06.177Z,83.47
2019-02-16T19:40:06.444Z,83.8
2019-02-16T19:44:06.961Z,82.91
2019-02-16T19:49:07.469Z,83.52
2019-02-16T19:54:07.187Z,83.76
2019-02-16T19:59:06.904Z,85.6
2019-02-16T20:04:06.408Z,85.26
2019-02-16T20:09:06.659Z,85.74
2019-02-16T20:14:06.389Z,86.21
2019-02-16T20:18:07.669Z,86.91
2019-02-16T20:23:06.745Z,87.3
2019-02-16T20:28:06.426Z,87.06
2019-02-16T20:33:06.204Z,87.68
2019-02-16T20:38:06.088Z,86.42
2019-02-16T20:43:06.119Z,87.23
2019-02-16T20:48:06.664Z,87.59
2019-02-16T20:52:07.508Z,88.2
2019-02-16T20:57:07.874Z,89.68
2019-02-16T21:02:06.459Z,88.5
2019-02-16T21:07:06.607Z,89.26
2019-02-16T21:12:06.838Z,89.55
2019-02-16T21:17:06.450Z,90.11
2019-02-16T21:22:07.175Z,89.52
2019-02-16T21:26:07.732Z,90.45
2019-02-16T21:31:07.514Z,91.41
2019-02-16T21:36:07.295Z,91.5
2019-02-16T21:41:07.514Z,94.28
2019-02-16T21:46:07.263Z,93.19
2019-02-16T21:51:07.088Z,94.03
2019-02-16T21:56:06.919Z,92
2019-02-16T22:01:06.364Z,92.89
2019-02-16T22:05:06.856Z,92.03
2019-02-16T22:10:07.000Z,91.22
2019-02-16T22:15:08.134Z,90.23
2019-02-16T22:20:07.316Z,90.52
2019-02-16T22:25:07.802Z,90.36
2019-02-16T22:30:08.725Z,90.72
2019-02-16T22:35:07.518Z,90.86
2019-02-16T22:39:07.798Z,91.06
2019-02-16T22:44:07.647Z,92.15
2019-02-16T22:49:06.923Z,92.49
2019-02-16T22:54:07.805Z,92.71
2019-02-16T22:59:08.087Z,93.7
2019-02-16T23:04:07.170Z,94.15
2019-02-16T23:09:07.292Z,94.19
2019-02-16T23:13:07.297Z,94.35
2019-02-16T23:18:06.880Z,94.36
2019-02-16T23:23:07.637Z,94.5
2019-02-16T23:28:07.333Z,94.49
2019-02-16T23:33:07.708Z,94.47
2019-02-16T23:38:07.414Z,94.76
2019-02-16T23:43:07.658Z,95.05
2019-02-16T23:47:07.173Z,95.28
2019-02-16T23:52:07.003Z,95.45
2019-02-16T23:57:06.715Z,95.81
